Time;durP1;ratioP1;P1;durP2;ratioP2;P2;SDS_P1;SDS_P2;PMS_P1;PMS_P2;Temp;Humidity;BMP_temperature;BMP_pressure;BME280_temperature;BME280_humidity;BME280_pressure;Samples;Min_cycle;Max_cycle;Signal;HPM_P1;HPM_P2
2022/10/15 00:01:06;;;;;;;10.85;4.43;;;;;;;;;;4970688;28;20058;-65
2022/10/15 00:03:35;;;;;;;9.43;4.50;;;;;;;;;;4965272;28;20111;-67
2022/10/15 00:06:03;;;;;;;8.85;4.55;;;;;;;;;;4954154;28;20050;-66
2022/10/15 00:08:30;;;;;;;11.18;4.70;;;;;;;;;;4964494;28;20188;-67
2022/10/15 00:11:01;;;;;;;13.35;6.15;;;;;;;;;;4969795;28;20062;-65
2022/10/15 00:13:29;;;;;;;8.93;4.25;;;;;;;;;;4964815;28;20117;-67
2022/10/15 00:15:56;;;;;;;8.55;4.18;;;;;;;;;;4970208;28;20058;-65
2022/10/15 00:18:22;;;;;;;8.80;4.35;;;;;;;;;;4964678;28;20053;-67
2022/10/15 00:20:49;;;;;;;9.15;4.65;;;;;;;;;;4970444;28;20065;-65
2022/10/15 00:23:15;;;;;;;9.25;4.20;;;;;;;;;;4970082;28;20058;-65
2022/10/15 00:25:42;;;;;;;9.43;4.20;;;;;;;;;;4964383;28;20109;-67
2022/10/15 00:28:09;;;;;;;8.48;4.05;;;;;;;;;;4969763;28;20061;-66
2022/10/15 00:30:37;;;;;;;9.95;4.43;;;;;;;;;;4964612;28;20050;-67
2022/10/15 00:33:03;;;;;;;11.50;5.38;;;;;;;;;;4970037;28;20058;-67
2022/10/15 00:35:30;;;;;;;10.18;4.32;;;;;;;;;;4963913;28;20169;-66
2022/10/15 00:37:56;;;;;;;13.73;6.20;;;;;;;;;;4969672;28;20073;-67
2022/10/15 00:40:23;;;;;;;11.90;5.45;;;;;;;;;;4953723;28;20055;-65
2022/10/15 00:42:50;;;;;;;10.10;4.80;;;;;;;;;;4951010;28;20051;-65
2022/10/15 00:45:16;;;;;;;18.10;9.13;;;;;;;;;;4960501;28;20061;-66
2022/10/15 00:47:46;;;;;;;15.90;7.38;;;;;;;;;;4969681;28;20069;-66
2022/10/15 00:50:13;;;;;;;14.85;6.47;;;;;;;;;;4963826;28;20057;-67
2022/10/15 00:52:43;;;;;;;14.00;6.20;;;;;;;;;;4969633;28;20054;-66
2022/10/15 00:55:12;;;;;;;18.60;8.10;;;;;;;;;;4964034;28;20054;-66
2022/10/15 00:57:40;;;;;;;17.80;6.95;;;;;;;;;;4969271;28;20066;-66
2022/10/15 01:00:08;;;;;;;13.18;6.20;;;;;;;;;;4964027;28;20069;-67
2022/10/15 01:02:35;;;;;;;13.23;5.18;;;;;;;;;;4969953;28;20042;-66
2022/10/15 01:05:03;;;;;;;12.25;6.15;;;;;;;;;;4966083;28;20058;-67
2022/10/15 01:07:29;;;;;;;12.63;5.40;;;;;;;;;;4967392;28;20050;-67
2022/10/15 01:09:56;;;;;;;8.88;4.35;;;;;;;;;;4969197;28;20447;-65
2022/10/15 01:12:30;;;;;;;10.63;5.10;;;;;;;;;;4964395;28;20049;-66
2022/10/15 01:15:02;;;;;;;9.68;4.47;;;;;;;;;;4969546;28;20054;-67
2022/10/15 01:17:31;;;;;;;8.75;4.45;;;;;;;;;;4963876;28;20054;-63
2022/10/15 01:20:13;;;;;;;11.15;5.43;;;;;;;;;;4969051;28;20058;-67
2022/10/15 01:22:46;;;;;;;13.27;6.63;;;;;;;;;;4962594;28;20061;-63
2022/10/15 01:25:20;;;;;;;20.23;7.50;;;;;;;;;;4966010;28;20039;-65
2022/10/15 01:27:52;;;;;;;19.77;7.30;;;;;;;;;;4960241;28;20073;-65
2022/10/15 01:30:22;;;;;;;9.73;4.72;;;;;;;;;;4969272;28;20064;-65
2022/10/15 01:32:52;;;;;;;15.98;7.57;;;;;;;;;;4963915;28;20054;-62
2022/10/15 01:35:22;;;;;;;12.57;5.82;;;;;;;;;;4969203;28;20183;-63
2022/10/15 01:37:52;;;;;;;15.32;7.57;;;;;;;;;;4964563;28;20054;-63
2022/10/15 01:40:20;;;;;;;10.45;5.10;;;;;;;;;;4969304;28;20058;-67
2022/10/15 01:42:51;;;;;;;18.98;8.25;;;;;;;;;;4964155;28;20112;-65
2022/10/15 01:45:20;;;;;;;22.50;9.98;;;;;;;;;;4968919;28;20058;-64
2022/10/15 01:47:52;;;;;;;10.98;5.00;;;;;;;;;;4963595;28;20073;-64
2022/10/15 01:50:20;;;;;;;10.23;4.75;;;;;;;;;;4969007;28;20065;-65
2022/10/15 01:52:49;;;;;;;22.90;9.63;;;;;;;;;;4963555;28;20112;-67
2022/10/15 01:55:16;;;;;;;10.90;4.80;;;;;;;;;;4968955;28;20058;-64
2022/10/15 01:57:44;;;;;;;23.55;8.05;;;;;;;;;;4963839;28;20054;-62
2022/10/15 02:00:11;;;;;;;10.20;4.63;;;;;;;;;;4968672;28;20054;-62
2022/10/15 02:02:38;;;;;;;11.13;5.40;;;;;;;;;;4946951;28;20084;-66
2022/10/15 02:05:10;;;;;;;9.30;4.32;;;;;;;;;;4966244;28;20058;-65
2022/10/15 02:07:43;;;;;;;9.32;4.22;;;;;;;;;;4963211;28;20050;-65
2022/10/15 02:10:13;;;;;;;7.30;3.47;;;;;;;;;;4969203;28;20054;-63
2022/10/15 02:12:43;;;;;;;18.92;8.18;;;;;;;;;;4964349;28;20117;-61
2022/10/15 02:15:11;;;;;;;26.45;10.18;;;;;;;;;;4967830;28;20129;-66
2022/10/15 02:17:40;;;;;;;16.23;7.38;;;;;;;;;;4985038;28;20050;-62
2022/10/15 02:20:06;;;;;;;;;;;;;;;;;;4950516;28;20397;-67
2022/10/15 02:22:37;;;;;;;10.70;4.45;;;;;;;;;;4969037;28;19926;-63
2022/10/15 02:25:06;;;;;;;10.25;4.82;;;;;;;;;;4967194;28;20062;-62
2022/10/15 02:27:33;;;;;;;;;;;;;;;;;;4971477;28;20057;-61
2022/10/15 02:30:02;;;;;;;7.45;3.70;;;;;;;;;;4982381;28;20032;-61
2022/10/15 02:32:30;;;;;;;8.32;3.70;;;;;;;;;;4973127;28;20050;-63
2022/10/15 02:34:58;;;;;;;11.50;5.07;;;;;;;;;;4966863;28;20050;-62
2022/10/15 02:37:27;;;;;;;26.90;10.52;;;;;;;;;;4972110;28;20305;-61
2022/10/15 02:39:55;;;;;;;22.90;11.18;;;;;;;;;;4966481;28;20050;-67
2022/10/15 02:42:21;;;;;;;9.52;4.60;;;;;;;;;;4970924;28;20058;-63
2022/10/15 02:44:48;;;;;;;8.70;3.85;;;;;;;;;;4966737;28;20082;-63
2022/10/15 02:47:15;;;;;;;24.75;10.70;;;;;;;;;;4971182;28;20069;-67
2022/10/15 02:49:42;;;;;;;17.20;7.22;;;;;;;;;;4966741;28;20078;-64
2022/10/15 02:52:08;;;;;;;20.63;8.88;;;;;;;;;;4971805;28;20161;-62
2022/10/15 02:54:35;;;;;;;12.82;5.72;;;;;;;;;;4966169;28;20070;-61
2022/10/15 02:57:03;;;;;;;9.70;3.92;;;;;;;;;;4971086;28;20182;-64
2022/10/15 02:59:29;;;;;;;18.55;8.35;;;;;;;;;;4967210;28;20070;-65
2022/10/15 03:01:56;;;;;;;23.88;9.43;;;;;;;;;;4954479;28;20054;-62
2022/10/15 03:04:23;;;;;;;13.38;6.10;;;;;;;;;;4972062;28;20046;-65
2022/10/15 03:06:49;;;;;;;20.10;9.32;;;;;;;;;;4966276;28;20058;-62
2022/10/15 03:09:16;;;;;;;13.10;6.18;;;;;;;;;;4972375;28;20062;-66
2022/10/15 03:11:42;;;;;;;21.80;9.57;;;;;;;;;;4966134;28;20065;-65
2022/10/15 03:14:11;;;;;;;14.20;6.85;;;;;;;;;;4971055;28;20058;-62
2022/10/15 03:16:37;;;;;;;20.83;9.13;;;;;;;;;;4964717;28;20164;-63
2022/10/15 03:19:05;;;;;;;17.45;7.07;;;;;;;;;;4970850;28;20058;-63
2022/10/15 03:21:31;;;;;;;11.77;5.55;;;;;;;;;;4965646;28;20054;-67
2022/10/15 03:23:58;;;;;;;18.70;7.90;;;;;;;;;;4970694;28;20062;-63
2022/10/15 03:26:25;;;;;;;10.80;4.65;;;;;;;;;;4965200;28;20055;-61
2022/10/15 03:28:52;;;;;;;8.48;4.13;;;;;;;;;;4971169;28;20142;-62
2022/10/15 03:31:20;;;;;;;24.27;9.80;;;;;;;;;;4965333;28;20050;-62
2022/10/15 03:33:47;;;;;;;11.70;5.30;;;;;;;;;;4969959;28;20042;-61
2022/10/15 03:36:13;;;;;;;20.80;8.15;;;;;;;;;;4965914;28;20077;-66
2022/10/15 03:38:40;;;;;;;10.57;5.30;;;;;;;;;;4971037;28;20046;-63
2022/10/15 03:41:06;;;;;;;17.20;8.30;;;;;;;;;;4966737;28;20057;-64
2022/10/15 03:43:33;;;;;;;12.80;6.00;;;;;;;;;;4969961;28;20050;-63
2022/10/15 03:46:01;;;;;;;26.30;10.77;;;;;;;;;;4970364;28;20138;-64
2022/10/15 03:48:29;;;;;;;22.88;10.45;;;;;;;;;;4965362;28;20056;-62
2022/10/15 03:50:56;;;;;;;26.38;9.63;;;;;;;;;;4971475;28;20062;-66
2022/10/15 03:53:23;;;;;;;22.55;10.40;;;;;;;;;;4965240;28;20061;-61
2022/10/15 03:55:49;;;;;;;11.48;5.57;;;;;;;;;;4970224;28;20077;-63
2022/10/15 03:58:16;;;;;;;13.95;6.28;;;;;;;;;;4954551;28;20051;-62
2022/10/15 04:00:43;;;;;;;26.27;10.25;;;;;;;;;;4954013;28;20054;-62
2022/10/15 04:03:10;;;;;;;14.00;5.80;;;;;;;;;;4955366;28;20051;-61
2022/10/15 04:05:38;;;;;;;8.73;3.63;;;;;;;;;;4951351;28;20055;-62
2022/10/15 04:08:05;;;;;;;24.38;10.75;;;;;;;;;;4953096;28;20065;-62
2022/10/15 04:10:31;;;;;;;12.65;5.60;;;;;;;;;;4969966;28;20054;-63
2022/10/15 04:12:58;;;;;;;9.68;4.38;;;;;;;;;;4964913;28;20053;-63
2022/10/15 04:15:26;;;;;;;8.57;4.03;;;;;;;;;;4970314;28;20132;-62
2022/10/15 04:17:54;;;;;;;13.90;4.83;;;;;;;;;;4964492;28;20060;-66
2022/10/15 04:20:20;;;;;;;11.90;5.28;;;;;;;;;;4970711;28;20093;-67
2022/10/15 04:22:48;;;;;;;21.05;8.13;;;;;;;;;;4965271;28;20220;-64
2022/10/15 04:25:15;;;;;;;8.65;3.88;;;;;;;;;;4970078;28;20060;-66
2022/10/15 04:27:42;;;;;;;16.58;8.32;;;;;;;;;;4970426;28;20154;-62
2022/10/15 04:30:09;;;;;;;13.40;6.70;;;;;;;;;;4965065;28;20188;-62
2022/10/15 04:32:36;;;;;;;8.23;4.03;;;;;;;;;;4971469;28;20061;-65
2022/10/15 04:35:02;;;;;;;8.32;4.07;;;;;;;;;;4966187;28;20061;-62
2022/10/15 04:37:32;;;;;;;7.68;3.55;;;;;;;;;;4970786;28;20046;-66
2022/10/15 04:40:00;;;;;;;14.20;6.43;;;;;;;;;;4964331;28;20105;-65
2022/10/15 04:42:28;;;;;;;10.57;4.63;;;;;;;;;;4970112;28;20082;-66
2022/10/15 04:44:55;;;;;;;21.30;9.97;;;;;;;;;;4963263;28;20066;-63
2022/10/15 04:47:21;;;;;;;12.82;5.60;;;;;;;;;;4969935;28;20391;-63
2022/10/15 04:49:48;;;;;;;22.25;10.43;;;;;;;;;;4964718;28;20046;-61
2022/10/15 04:52:14;;;;;;;10.52;5.65;;;;;;;;;;4970433;28;20053;-65
2022/10/15 04:54:41;;;;;;;21.30;8.48;;;;;;;;;;4964652;28;20058;-65
2022/10/15 04:57:09;;;;;;;21.08;10.13;;;;;;;;;;4969847;28;20065;-63
2022/10/15 04:59:36;;;;;;;23.42;10.45;;;;;;;;;;4964121;28;20041;-63
2022/10/15 05:02:02;;;;;;;20.50;10.85;;;;;;;;;;4969009;28;20064;-64
2022/10/15 05:04:29;;;;;;;23.33;10.73;;;;;;;;;;4963923;28;20141;-61
2022/10/15 05:06:56;;;;;;;25.38;10.77;;;;;;;;;;4969566;28;20120;-62
2022/10/15 05:09:24;;;;;;;25.90;11.07;;;;;;;;;;4969397;28;20089;-63
2022/10/15 05:11:50;;;;;;;23.47;10.53;;;;;;;;;;4964254;28;20238;-65
2022/10/15 05:14:18;;;;;;;13.75;7.18;;;;;;;;;;4959932;28;20313;-67
2022/10/15 05:16:45;;;;;;;18.10;9.25;;;;;;;;;;4963645;28;20061;-64
2022/10/15 05:19:12;;;;;;;19.75;8.50;;;;;;;;;;4969402;28;20089;-66
2022/10/15 05:21:39;;;;;;;19.63;9.75;;;;;;;;;;4963846;28;20054;-66
2022/10/15 05:24:06;;;;;;;20.80;10.35;;;;;;;;;;4970051;28;20094;-66
2022/10/15 05:26:33;;;;;;;13.75;6.72;;;;;;;;;;4963529;28;20058;-66
2022/10/15 05:29:00;;;;;;;21.08;10.05;;;;;;;;;;4987117;28;20070;-66
2022/10/15 05:31:29;;;;;;;16.58;8.73;;;;;;;;;;4963488;28;20057;-66
2022/10/15 05:33:56;;;;;;;14.50;7.25;;;;;;;;;;4967464;28;20065;-66
2022/10/15 05:36:24;;;;;;;20.45;10.57;;;;;;;;;;4963741;28;20050;-63
2022/10/15 05:38:52;;;;;;;15.77;7.33;;;;;;;;;;4969449;28;20081;-62
2022/10/15 05:41:19;;;;;;;9.73;4.30;;;;;;;;;;4963271;28;20302;-64
2022/10/15 05:43:46;;;;;;;12.15;5.55;;;;;;;;;;4968812;28;20042;-61
2022/10/15 05:46:14;;;;;;;19.02;8.98;;;;;;;;;;4963059;28;20062;-63
2022/10/15 05:48:42;;;;;;;24.83;10.68;;;;;;;;;;4969074;28;20042;-61
2022/10/15 05:51:11;;;;;;;22.05;9.93;;;;;;;;;;4965053;28;20054;-62
2022/10/15 05:53:38;;;;;;;23.52;10.10;;;;;;;;;;4968050;28;20074;-62
2022/10/15 05:56:05;;;;;;;27.05;12.32;;;;;;;;;;4970139;28;20092;-67
2022/10/15 05:58:33;;;;;;;18.98;9.80;;;;;;;;;;4967584;28;20082;-66
2022/10/15 06:01:00;;;;;;;10.70;5.75;;;;;;;;;;4990722;28;20077;-61
2022/10/15 06:03:27;;;;;;;23.00;10.77;;;;;;;;;;4966141;28;20178;-61
2022/10/15 06:05:55;;;;;;;24.05;11.40;;;;;;;;;;4969399;28;20051;-62
2022/10/15 06:08:24;;;;;;;24.00;9.88;;;;;;;;;;4961209;28;20137;-63
2022/10/15 06:10:51;;;;;;;;;;;;;;;;;;4972216;28;20058;-64
2022/10/15 06:13:17;;;;;;;20.00;8.13;;;;;;;;;;4966768;28;19925;-62
2022/10/15 06:15:45;;;;;;;14.82;7.32;;;;;;;;;;4972324;28;20070;-65
2022/10/15 06:18:14;;;;;;;22.90;10.07;;;;;;;;;;4957261;28;20054;-65
2022/10/15 06:20:41;;;;;;;17.98;8.65;;;;;;;;;;4972158;28;20054;-64
2022/10/15 06:23:09;;;;;;;16.20;7.15;;;;;;;;;;4967102;28;20578;-65
2022/10/15 06:25:36;;;;;;;16.27;7.00;;;;;;;;;;4972312;28;20058;-67
2022/10/15 06:28:03;;;;;;;17.38;7.50;;;;;;;;;;4966740;28;20057;-66
2022/10/15 06:30:30;;;;;;;19.08;8.77;;;;;;;;;;4972601;28;20152;-64
2022/10/15 06:32:57;;;;;;;16.55;7.85;;;;;;;;;;4966916;28;20055;-64
2022/10/15 06:35:25;;;;;;;18.38;7.22;;;;;;;;;;4972292;28;20078;-65
2022/10/15 06:37:52;;;;;;;14.25;7.53;;;;;;;;;;4972107;28;20070;-62
2022/10/15 06:40:20;;;;;;;18.88;8.13;;;;;;;;;;4966778;28;20073;-63
2022/10/15 06:42:46;;;;;;;18.67;8.45;;;;;;;;;;4972034;28;20062;-62
2022/10/15 06:45:13;;;;;;;19.35;8.27;;;;;;;;;;4966818;28;20052;-66
2022/10/15 06:47:41;;;;;;;15.90;7.80;;;;;;;;;;4971597;28;20050;-63
2022/10/15 06:50:08;;;;;;;15.07;7.70;;;;;;;;;;4967267;28;20129;-65
2022/10/15 06:52:34;;;;;;;17.20;7.93;;;;;;;;;;4971917;28;20065;-64
2022/10/15 06:55:01;;;;;;;18.80;8.63;;;;;;;;;;4965964;28;20427;-62
2022/10/15 06:57:30;;;;;;;16.27;7.82;;;;;;;;;;4971734;28;20058;-66
2022/10/15 06:59:57;;;;;;;19.38;9.52;;;;;;;;;;4956952;28;20102;-65
2022/10/15 07:02:23;;;;;;;22.67;10.00;;;;;;;;;;4952418;28;20059;-67
2022/10/15 07:04:50;;;;;;;19.48;9.27;;;;;;;;;;4970662;28;20145;-64
2022/10/15 07:07:16;;;;;;;15.15;6.82;;;;;;;;;;4971349;28;20050;-63
2022/10/15 07:09:45;;;;;;;20.70;8.65;;;;;;;;;;4966630;28;20050;-63
2022/10/15 07:12:12;;;;;;;19.27;8.75;;;;;;;;;;4971290;28;20137;-62
2022/10/15 07:14:40;;;;;;;18.08;8.68;;;;;;;;;;4966733;28;20133;-64
2022/10/15 07:17:07;;;;;;;20.63;9.23;;;;;;;;;;4971144;28;20058;-63
2022/10/15 07:19:34;;;;;;;21.67;8.73;;;;;;;;;;4968347;28;20149;-66
2022/10/15 07:22:01;;;;;;;14.80;6.97;;;;;;;;;;4969650;28;20082;-66
2022/10/15 07:24:27;;;;;;;18.63;8.88;;;;;;;;;;4970853;28;20058;-65
2022/10/15 07:26:54;;;;;;;18.98;8.43;;;;;;;;;;4965264;28;20116;-64
2022/10/15 07:29:20;;;;;;;16.27;8.23;;;;;;;;;;4970884;28;20054;-63
2022/10/15 07:31:48;;;;;;;18.65;8.50;;;;;;;;;;4966261;28;20062;-66
2022/10/15 07:34:16;;;;;;;11.90;5.93;;;;;;;;;;4970848;28;20097;-65
2022/10/15 07:36:43;;;;;;;12.27;6.32;;;;;;;;;;4964929;28;20066;-66
2022/10/15 07:39:11;;;;;;;16.20;7.95;;;;;;;;;;4970558;28;20064;-66
2022/10/15 07:41:37;;;;;;;18.70;9.83;;;;;;;;;;4965336;28;20062;-66
2022/10/15 07:44:04;;;;;;;19.17;8.23;;;;;;;;;;4971345;28;20060;-66
2022/10/15 07:46:30;;;;;;;19.77;8.85;;;;;;;;;;4965348;28;20062;-66
2022/10/15 07:48:58;;;;;;;18.58;8.95;;;;;;;;;;4970493;28;20118;-65
2022/10/15 07:51:25;;;;;;;18.10;7.50;;;;;;;;;;4964911;28;20105;-64
2022/10/15 07:53:51;;;;;;;20.85;8.05;;;;;;;;;;4971261;28;20073;-63
2022/10/15 07:56:19;;;;;;;14.35;6.82;;;;;;;;;;5000854;28;20103;-63
2022/10/15 07:58:50;;;;;;;19.45;8.00;;;;;;;;;;5005174;28;20058;-63
2022/10/15 08:01:17;;;;;;;13.05;6.65;;;;;;;;;;4983517;28;20053;-65
2022/10/15 08:03:44;;;;;;;17.05;8.07;;;;;;;;;;4989565;28;20046;-66
2022/10/15 08:06:12;;;;;;;17.30;8.48;;;;;;;;;;4988776;28;20045;-66
2022/10/15 08:08:38;;;;;;;16.65;6.95;;;;;;;;;;4978933;28;20054;-64
2022/10/15 08:11:05;;;;;;;17.63;6.15;;;;;;;;;;4995839;28;20117;-66
2022/10/15 08:13:32;;;;;;;14.93;6.32;;;;;;;;;;4980883;28;20070;-64
2022/10/15 08:16:01;;;;;;;19.02;8.75;;;;;;;;;;4985552;28;20038;-64
2022/10/15 08:18:28;;;;;;;17.45;7.88;;;;;;;;;;4977401;28;20052;-65
2022/10/15 08:20:55;;;;;;;23.27;9.73;;;;;;;;;;4989247;28;20057;-66
2022/10/15 08:23:23;;;;;;;21.77;9.38;;;;;;;;;;4984269;28;20057;-64
2022/10/15 08:25:50;;;;;;;20.20;8.98;;;;;;;;;;4989722;28;20112;-67
2022/10/15 08:28:17;;;;;;;17.65;7.95;;;;;;;;;;4984113;28;20066;-67
2022/10/15 08:30:44;;;;;;;18.60;8.07;;;;;;;;;;4990079;28;20058;-66
2022/10/15 08:33:11;;;;;;;19.60;8.82;;;;;;;;;;4983705;28;20058;-67
2022/10/15 08:35:40;;;;;;;22.00;9.50;;;;;;;;;;4989414;28;20062;-66
2022/10/15 08:38:07;;;;;;;25.23;10.10;;;;;;;;;;4983893;28;20050;-65
2022/10/15 08:40:35;;;;;;;23.58;9.55;;;;;;;;;;4989348;28;20108;-65
2022/10/15 08:43:02;;;;;;;19.48;8.40;;;;;;;;;;4983214;28;20046;-66
2022/10/15 08:45:30;;;;;;;23.90;9.52;;;;;;;;;;4988961;28;20057;-63
2022/10/15 08:47:59;;;;;;;18.05;8.45;;;;;;;;;;4989280;28;20054;-67
2022/10/15 08:50:27;;;;;;;18.27;8.20;;;;;;;;;;4986669;28;20058;-67
2022/10/15 08:52:54;;;;;;;16.58;8.20;;;;;;;;;;4989095;28;20077;-67
2022/10/15 08:55:21;;;;;;;17.33;8.00;;;;;;;;;;4983406;28;20111;-64
2022/10/15 08:57:52;;;;;;;17.42;7.78;;;;;;;;;;4989256;28;20054;-67
2022/10/15 09:00:20;;;;;;;18.30;8.73;;;;;;;;;;4983955;28;20060;-66
2022/10/15 09:02:50;;;;;;;15.18;6.95;;;;;;;;;;4989138;28;20049;-67
2022/10/15 09:05:25;;;;;;;15.63;7.88;;;;;;;;;;4983083;28;20114;-65
2022/10/15 09:07:53;;;;;;;15.82;7.72;;;;;;;;;;4988519;28;20140;-67
2022/10/15 09:10:27;;;;;;;16.58;7.15;;;;;;;;;;4983530;28;20050;-67
2022/10/15 09:12:58;;;;;;;19.00;7.63;;;;;;;;;;4989291;28;20054;-67
2022/10/15 09:15:26;;;;;;;18.10;6.93;;;;;;;;;;4983540;28;20058;-65
2022/10/15 09:17:54;;;;;;;17.77;6.93;;;;;;;;;;5004924;28;20124;-67
2022/10/15 09:20:22;;;;;;;15.68;6.95;;;;;;;;;;4999868;28;20339;-66
2022/10/15 09:22:50;;;;;;;13.70;6.60;;;;;;;;;;4988787;28;20050;-68
2022/10/15 09:25:18;;;;;;;14.07;6.65;;;;;;;;;;4982883;28;20070;-65
2022/10/15 09:27:46;;;;;;;19.40;7.63;;;;;;;;;;4988035;28;20046;-67
2022/10/15 09:30:20;;;;;;;18.10;6.50;;;;;;;;;;4984354;28;20053;-66
2022/10/15 09:32:49;;;;;;;15.55;6.15;;;;;;;;;;4992950;28;20298;-67
2022/10/15 09:35:19;;;;;;;13.77;6.68;;;;;;;;;;4987181;28;20048;-65
2022/10/15 09:37:48;;;;;;;18.00;7.45;;;;;;;;;;4992609;28;20077;-66
2022/10/15 09:40:24;;;;;;;15.00;7.03;;;;;;;;;;4987148;28;20045;-66
2022/10/15 09:42:51;;;;;;;14.90;6.32;;;;;;;;;;4992074;28;20112;-65
2022/10/15 09:45:20;;;;;;;14.00;6.70;;;;;;;;;;4987443;28;20046;-66
2022/10/15 09:47:46;;;;;;;13.98;5.97;;;;;;;;;;4977284;28;20057;-67
2022/10/15 09:50:14;;;;;;;15.15;6.53;;;;;;;;;;4992664;28;20136;-65
2022/10/15 09:52:47;;;;;;;14.32;5.78;;;;;;;;;;4987418;28;20139;-66
2022/10/15 09:55:20;;;;;;;14.02;6.18;;;;;;;;;;4981338;28;20062;-68
2022/10/15 09:57:52;;;;;;;12.55;5.45;;;;;;;;;;4950616;28;20225;-66
2022/10/15 10:00:20;;;;;;;12.63;5.68;;;;;;;;;;4953663;28;20137;-63
2022/10/15 10:03:03;;;;;;;15.35;6.00;;;;;;;;;;4963573;28;20054;-66
2022/10/15 10:05:30;;;;;;;17.17;5.78;;;;;;;;;;4971916;28;20069;-65
2022/10/15 10:08:07;;;;;;;11.77;5.40;;;;;;;;;;4966718;28;20082;-66
2022/10/15 10:10:35;;;;;;;11.68;5.57;;;;;;;;;;4972840;28;20054;-66
2022/10/15 10:13:02;;;;;;;11.65;5.20;;;;;;;;;;4953278;28;20133;-65
2022/10/15 10:15:33;;;;;;;15.38;5.43;;;;;;;;;;4954441;28;20059;-63
2022/10/15 10:18:01;;;;;;;14.45;5.38;;;;;;;;;;4966858;28;20106;-65
2022/10/15 10:20:27;;;;;;;17.58;5.53;;;;;;;;;;4971303;28;20046;-68
2022/10/15 10:22:55;;;;;;;11.50;4.82;;;;;;;;;;4966262;28;20050;-68
2022/10/15 10:25:30;;;;;;;11.73;5.75;;;;;;;;;;4971557;28;20154;-67
2022/10/15 10:28:03;;;;;;;10.57;4.80;;;;;;;;;;4966494;28;20054;-67
2022/10/15 10:30:34;;;;;;;12.10;5.35;;;;;;;;;;4972270;28;20050;-67
2022/10/15 10:33:02;;;;;;;14.23;5.80;;;;;;;;;;4966837;28;20152;-67
2022/10/15 10:35:33;;;;;;;10.18;4.43;;;;;;;;;;4972147;28;20058;-66
2022/10/15 10:38:02;;;;;;;12.30;5.45;;;;;;;;;;4966105;28;20047;-67
2022/10/15 10:40:28;;;;;;;;;;;;;;;;;;4972960;28;20065;-67
2022/10/15 10:43:11;;;;;;;11.77;5.10;;;;;;;;;;4965980;28;19926;-67
2022/10/15 10:45:52;;;;;;;12.15;5.82;;;;;;;;;;4972255;28;20054;-67
2022/10/15 10:48:21;;;;;;;10.32;4.80;;;;;;;;;;4962310;28;20054;-68
2022/10/15 10:50:48;;;;;;;11.45;5.72;;;;;;;;;;4972235;28;20070;-67
2022/10/15 10:53:19;;;;;;;11.43;5.47;;;;;;;;;;4966136;28;20039;-67
2022/10/15 10:55:47;;;;;;;9.82;4.60;;;;;;;;;;4970587;28;20081;-67
2022/10/15 10:58:20;;;;;;;13.75;5.25;;;;;;;;;;4965632;28;20050;-66
2022/10/15 11:00:51;;;;;;;10.65;4.78;;;;;;;;;;4971779;28;20080;-67
2022/10/15 11:03:22;;;;;;;12.05;5.05;;;;;;;;;;4967768;28;20054;-67
2022/10/15 11:05:50;;;;;;;9.40;4.43;;;;;;;;;;4972100;28;20050;-67
2022/10/15 11:08:21;;;;;;;10.43;4.87;;;;;;;;;;4971511;28;20065;-67
2022/10/15 11:10:52;;;;;;;8.85;4.20;;;;;;;;;;4958075;28;20312;-66
2022/10/15 11:13:28;;;;;;;10.88;4.78;;;;;;;;;;4971241;28;20062;-66
2022/10/15 11:15:59;;;;;;;10.88;4.72;;;;;;;;;;4965056;28;20210;-66
2022/10/15 11:18:34;;;;;;;11.52;4.47;;;;;;;;;;4971203;28;20058;-66
2022/10/15 11:21:07;;;;;;;8.27;4.03;;;;;;;;;;4948767;28;20141;-66
2022/10/15 11:23:44;;;;;;;9.88;4.07;;;;;;;;;;4952212;28;20153;-65
2022/10/15 11:26:21;;;;;;;10.05;4.13;;;;;;;;;;4963540;28;20054;-66
2022/10/15 11:28:53;;;;;;;9.65;4.13;;;;;;;;;;4971177;28;20054;-66
2022/10/15 11:31:25;;;;;;;7.72;3.58;;;;;;;;;;4965498;28;20150;-65
2022/10/15 11:34:00;;;;;;;9.90;4.30;;;;;;;;;;4971088;28;20061;-65
2022/10/15 11:36:35;;;;;;;10.35;4.65;;;;;;;;;;4965475;28;20054;-65
2022/10/15 11:39:12;;;;;;;8.77;3.83;;;;;;;;;;4969340;28;20057;-66
2022/10/15 11:41:44;;;;;;;10.57;4.30;;;;;;;;;;4965450;28;20077;-66
2022/10/15 11:44:21;;;;;;;8.85;3.80;;;;;;;;;;4960905;28;20054;-65
2022/10/15 11:46:53;;;;;;;10.05;3.85;;;;;;;;;;4964986;28;20068;-65
2022/10/15 11:49:26;;;;;;;7.93;3.42;;;;;;;;;;4961065;28;20109;-66
2022/10/15 11:52:03;;;;;;;11.13;4.50;;;;;;;;;;4980983;28;20054;-66
2022/10/15 11:54:35;;;;;;;10.48;4.38;;;;;;;;;;4968096;28;20066;-66
2022/10/15 11:57:03;;;;;;;9.23;3.90;;;;;;;;;;4964724;28;20054;-65
2022/10/15 11:59:33;;;;;;;9.65;4.15;;;;;;;;;;4970731;28;20074;-66
2022/10/15 12:02:03;;;;;;;8.30;3.75;;;;;;;;;;4965038;28;20129;-66
2022/10/15 12:04:34;;;;;;;9.27;3.47;;;;;;;;;;4970578;28;20050;-66
2022/10/15 12:07:01;;;;;;;9.32;3.97;;;;;;;;;;4964132;28;20055;-65
2022/10/15 12:09:30;;;;;;;10.60;3.88;;;;;;;;;;4970853;28;20058;-65
2022/10/15 12:12:01;;;;;;;9.70;3.97;;;;;;;;;;4955705;28;20086;-65
2022/10/15 12:14:30;;;;;;;6.38;3.10;;;;;;;;;;4964577;28;20081;-65
2022/10/15 12:17:02;;;;;;;8.15;3.00;;;;;;;;;;4957572;28;20070;-66
2022/10/15 12:19:35;;;;;;;6.28;2.55;;;;;;;;;;4970486;28;20058;-66
2022/10/15 12:22:06;;;;;;;6.82;3.17;;;;;;;;;;4964835;28;20046;-66
2022/10/15 12:24:51;;;;;;;6.35;2.70;;;;;;;;;;4968706;28;20050;-66
2022/10/15 12:27:21;;;;;;;4.80;2.58;;;;;;;;;;4956274;28;20046;-66
2022/10/15 12:29:49;;;;;;;5.75;2.58;;;;;;;;;;4960278;28;20125;-66
2022/10/15 12:32:16;;;;;;;;;;;;;;;;;;4964818;28;20049;-65
2022/10/15 12:34:44;;;;;;;5.32;2.13;;;;;;;;;;4970056;28;19925;-66
2022/10/15 12:37:16;;;;;;;4.40;2.10;;;;;;;;;;4963537;28;20054;-66
2022/10/15 12:39:43;;;;;;;6.68;2.15;;;;;;;;;;4969786;28;20074;-66
2022/10/15 12:42:20;;;;;;;3.28;1.98;;;;;;;;;;4965224;28;20058;-66
2022/10/15 12:44:48;;;;;;;4.82;2.25;;;;;;;;;;4969722;28;20058;-66
2022/10/15 12:47:15;;;;;;;5.45;2.17;;;;;;;;;;4969484;28;20061;-66
2022/10/15 12:49:56;;;;;;;4.05;2.20;;;;;;;;;;4965628;28;20181;-66
2022/10/15 12:52:41;;;;;;;3.63;1.90;;;;;;;;;;4970044;28;20161;-65
2022/10/15 12:55:19;;;;;;;3.90;2.10;;;;;;;;;;4969118;28;20058;-65
2022/10/15 12:57:56;;;;;;;4.00;1.98;;;;;;;;;;4965297;28;20078;-66
2022/10/15 13:00:31;;;;;;;5.40;2.20;;;;;;;;;;4987769;28;20057;-66
2022/10/15 13:03:07;;;;;;;3.60;1.90;;;;;;;;;;4965254;28;20137;-66
2022/10/15 13:05:36;;;;;;;5.72;2.42;;;;;;;;;;4949977;28;20053;-66
2022/10/15 13:08:12;;;;;;;4.40;2.08;;;;;;;;;;4948780;28;20216;-66
2022/10/15 13:10:40;;;;;;;6.72;2.00;;;;;;;;;;4972257;28;20149;-66
2022/10/15 13:13:15;;;;;;;10.55;2.33;;;;;;;;;;4969324;28;20153;-66
2022/10/15 13:15:41;;;;;;;4.25;2.28;;;;;;;;;;4961602;28;20061;-66
2022/10/15 13:18:11;;;;;;;4.50;2.05;;;;;;;;;;4969314;28;20108;-66
2022/10/15 13:20:40;;;;;;;4.60;1.92;;;;;;;;;;4963597;28;20137;-66
2022/10/15 13:23:08;;;;;;;4.40;2.20;;;;;;;;;;4969760;28;20144;-66
2022/10/15 13:25:34;;;;;;;4.32;2.45;;;;;;;;;;4948934;28;20067;-66
2022/10/15 13:28:02;;;;;;;5.50;2.60;;;;;;;;;;4939620;28;20062;-68
2022/10/15 13:30:28;;;;;;;4.00;2.35;;;;;;;;;;4956901;28;20061;-66
2022/10/15 13:32:55;;;;;;;21.08;9.02;;;;;;;;;;4969189;28;20054;-65
2022/10/15 13:35:24;;;;;;;6.47;3.08;;;;;;;;;;4963547;28;20062;-65
2022/10/15 13:37:53;;;;;;;6.65;3.38;;;;;;;;;;4969467;28;20065;-66
2022/10/15 13:40:20;;;;;;;5.88;3.20;;;;;;;;;;4963842;28;20066;-66
2022/10/15 13:42:58;;;;;;;7.10;3.13;;;;;;;;;;4969455;28;20066;-65
2022/10/15 13:45:25;;;;;;;6.50;2.92;;;;;;;;;;4962625;28;20053;-66
2022/10/15 13:47:52;;;;;;;5.03;2.72;;;;;;;;;;4968786;28;20086;-65
2022/10/15 13:50:21;;;;;;;5.82;2.92;;;;;;;;;;4964153;28;20042;-66
2022/10/15 13:52:49;;;;;;;4.60;2.42;;;;;;;;;;4969574;28;20064;-66
2022/10/15 13:55:19;;;;;;;5.07;2.60;;;;;;;;;;4963973;28;20058;-66
2022/10/15 13:57:46;;;;;;;6.93;3.33;;;;;;;;;;4969086;28;20050;-67
2022/10/15 14:00:20;;;;;;;6.70;2.88;;;;;;;;;;4963977;28;20061;-67
2022/10/15 14:03:06;;;;;;;5.55;2.92;;;;;;;;;;4950176;28;20081;-65
2022/10/15 14:05:32;;;;;;;5.07;2.55;;;;;;;;;;4946141;28;20062;-65
2022/10/15 14:08:00;;;;;;;5.97;3.10;;;;;;;;;;4968790;28;20057;-66
2022/10/15 14:10:28;;;;;;;5.40;2.58;;;;;;;;;;4969260;28;20069;-65
2022/10/15 14:12:55;;;;;;;10.05;3.67;;;;;;;;;;4964150;28;20050;-65
2022/10/15 14:15:40;;;;;;;6.05;3.22;;;;;;;;;;4968071;28;20138;-65
2022/10/15 14:18:07;;;;;;;10.38;3.63;;;;;;;;;;4965362;28;20064;-65
2022/10/15 14:20:33;;;;;;;5.45;3.15;;;;;;;;;;4972520;28;20050;-63
2022/10/15 14:23:00;;;;;;;5.55;2.88;;;;;;;;;;4967143;28;20125;-66
2022/10/15 14:25:28;;;;;;;6.70;3.35;;;;;;;;;;4972125;28;20046;-66
2022/10/15 14:27:55;;;;;;;5.80;2.78;;;;;;;;;;4967177;28;20062;-66
2022/10/15 14:30:27;;;;;;;6.50;3.08;;;;;;;;;;4972548;28;20078;-65
2022/10/15 14:32:53;;;;;;;5.05;2.58;;;;;;;;;;4965426;28;20152;-66
2022/10/15 14:35:24;;;;;;;5.60;2.78;;;;;;;;;;4971791;28;20042;-67
2022/10/15 14:37:58;;;;;;;11.27;5.55;;;;;;;;;;4963011;28;20046;-64
2022/10/15 14:40:25;;;;;;;138.85;61.40;;;;;;;;;;4972130;28;20065;-63
2022/10/15 14:43:03;;;;;;;14.35;6.88;;;;;;;;;;4966663;28;20145;-63